Time;durP1;ratioP1;P1;durP2;ratioP2;P2;SDS_P1;SDS_P2;PMS_P1;PMS_P2;Temp;Humidity;BMP_temperature;BMP_pressure;BME280_temperature;BME280_humidity;BME280_pressure;Samples;Min_cycle;Max_cycle;Signal;HPM_P1;HPM_P2
2022/04/12 00:02:01;;;;;;;183.35;81.57;;;;;;;0.63;61.81;100663.17;1946370;91;29951;-62
2022/04/12 00:05:03;;;;;;;198.70;85.72;;;;;;;0.56;61.93;100668.48;1964503;89;32238;-62
2022/04/12 00:08:07;;;;;;;189.77;86.08;;;;;;;0.51;62.12;100666.28;2008291;88;33979;-61
2022/04/12 00:11:08;;;;;;;173.75;79.92;;;;;;;0.47;62.08;100661.03;2001450;88;30125;-59
2022/04/12 00:14:11;;;;;;;196.68;83.17;;;;;;;0.41;62.25;100661.47;2018287;86;28442;-60
2022/04/12 00:20:34;;;;;;;174.57;77.55;;;;;;;0.33;62.58;100662.36;2070597;85;31735;-61
2022/04/12 00:23:36;;;;;;;171.00;75.03;;;;;;;0.29;62.77;100662.81;2036164;87;33111;-64
2022/04/12 00:26:40;;;;;;;169.72;73.07;;;;;;;0.26;62.92;100658.41;2035993;85;30591;-59
2022/04/12 00:29:42;;;;;;;155.07;69.87;;;;;;;0.23;63.02;100660.18;2071867;85;27730;-66
2022/04/12 00:32:44;;;;;;;123.42;57.88;;;;;;;0.19;63.04;100655.78;2070900;85;29495;-61
2022/04/12 00:35:46;;;;;;;143.95;60.35;;;;;;;0.16;63.41;100662.41;2073545;85;31054;-61
2022/04/12 00:38:48;;;;;;;128.97;58.90;;;;;;;0.12;63.41;100665.03;2072880;85;33850;-63
2022/04/12 00:41:50;;;;;;;112.97;51.75;;;;;;;0.11;63.49;100668.55;2090078;84;29123;-62
2022/04/12 00:44:53;;;;;;;126.92;52.93;;;;;;;0.07;63.85;100664.60;2102311;84;27702;-63
2022/04/12 00:47:58;;;;;;;117.13;50.63;;;;;;;0.05;63.78;100668.98;2036043;87;29566;-63
2022/04/12 00:51:01;;;;;;;120.40;51.00;;;;;;;0.02;63.79;100671.16;2073772;85;31722;-61
2022/04/12 00:54:03;;;;;;;113.77;50.78;;;;;;;-0.01;63.77;100673.37;2091983;84;33859;-62
2022/04/12 00:57:07;;;;;;;108.30;48.58;;;;;;;-0.04;63.80;100674.68;2081962;84;30477;-59
2022/04/12 01:00:12;;;;;;;108.83;48.10;;;;;;;-0.07;63.88;100671.18;2070499;86;27622;-59
2022/04/12 01:03:13;;;;;;;122.80;50.53;;;;;;;-0.10;64.15;100673.80;2070804;85;28680;-60
2022/04/12 01:06:16;;;;;;;117.85;49.20;;;;;;;-0.13;64.46;100672.06;2070619;85;31406;-59
2022/04/12 01:09:18;;;;;;;107.40;45.98;;;;;;;-0.14;64.80;100678.63;2070507;86;33745;-59
2022/04/12 01:12:21;;;;;;;114.35;52.03;;;;;;;-0.17;64.57;100678.19;2071426;85;29979;-60
2022/04/12 01:15:25;;;;;;;115.75;49.42;;;;;;;-0.19;65.01;100678.63;2072455;85;27706;-60
2022/04/12 01:18:27;;;;;;;96.60;46.70;;;;;;;-0.21;65.13;100678.64;2072266;85;28646;-59
2022/04/12 01:21:33;;;;;;;115.00;49.77;;;;;;;-0.22;64.91;100679.94;2072355;85;31190;-60
2022/04/12 01:24:35;;;;;;;99.37;46.77;;;;;;;-0.25;64.93;100676.88;2071363;85;32997;-61
2022/04/12 01:27:37;;;;;;;105.50;46.35;;;;;;;-0.28;64.95;100685.22;2070262;85;31398;-60
2022/04/12 01:30:40;;;;;;;105.87;46.77;;;;;;;-0.32;64.85;100679.05;2070641;86;27646;-60
2022/04/12 01:33:42;;;;;;;109.92;50.38;;;;;;;-0.35;64.78;100690.45;2071051;85;29117;-60
2022/04/12 01:36:43;;;;;;;107.17;45.73;;;;;;;-0.40;64.86;100686.93;2072218;85;32368;-63
2022/04/12 01:39:46;;;;;;;102.60;45.08;;;;;;;-0.42;64.84;100695.29;2072452;85;33931;-60
2022/04/12 01:42:48;;;;;;;108.05;47.62;;;;;;;-0.46;64.76;100692.20;2072157;85;29460;-60
2022/04/12 01:45:51;;;;;;;99.65;46.63;;;;;;;-0.49;64.92;100693.05;2045378;85;27643;-59
2022/04/12 01:48:53;;;;;;;110.97;46.95;;;;;;;-0.51;65.02;100698.78;2074214;85;28651;-60
2022/04/12 01:51:55;;;;;;;99.87;45.12;;;;;;;-0.53;65.02;100707.10;2035959;87;31765;-59
2022/04/12 01:54:58;;;;;;;105.43;46.42;;;;;;;-0.58;65.10;100696.12;2047379;86;33543;-60
2022/04/12 01:58:00;;;;;;;94.50;44.15;;;;;;;-0.62;65.09;100699.17;2079855;85;30141;-61
2022/04/12 02:01:02;;;;;;;115.90;49.65;;;;;;;-0.65;65.16;100704.41;2091588;85;27688;-60
2022/04/12 02:04:04;;;;;;;114.97;52.88;;;;;;;-0.69;65.37;100708.80;2074680;85;28648;-59
2022/04/12 02:07:06;;;;;;;117.22;50.95;;;;;;;-0.71;65.46;100703.96;2087444;85;31884;-59
2022/04/12 02:10:11;;;;;;;111.88;54.27;;;;;;;-0.75;65.56;100698.27;2091848;85;33934;-60
2022/04/12 02:13:12;;;;;;;116.28;51.53;;;;;;;-0.77;65.58;100696.94;2083081;85;36755;-59
2022/04/12 02:16:15;;;;;;;109.45;51.83;;;;;;;-0.81;65.61;100695.61;2068183;86;27664;-59
2022/04/12 02:19:17;;;;;;;110.65;51.53;;;;;;;-0.82;65.64;100700.42;2091083;85;29867;-60
2022/04/12 02:22:19;;;;;;;107.32;49.90;;;;;;;-0.85;65.70;100696.05;2076769;85;32221;-60
2022/04/12 02:25:21;;;;;;;117.47;52.30;;;;;;;-0.88;65.72;100694.72;2072429;84;33893;-59
2022/04/12 02:28:24;;;;;;;122.80;55.43;;;;;;;-0.90;65.85;100689.88;2050813;86;29414;-59
2022/04/12 02:31:26;;;;;;;128.12;58.85;;;;;;;-0.92;65.99;100692.94;2017789;88;27732;-59
2022/04/12 02:34:29;;;;;;;120.82;57.43;;;;;;;-0.94;66.25;100695.58;2038731;86;29349;-59
2022/04/12 02:37:33;;;;;;;131.93;57.30;;;;;;;-0.95;66.61;100689.87;2049764;86;31198;-64
2022/04/12 02:40:35;;;;;;;128.12;54.35;;;;;;;-0.96;66.89;100692.05;2050980;86;33754;-59
2022/04/12 02:43:37;;;;;;;134.07;57.90;;;;;;;-0.95;66.79;100692.92;2051001;86;29592;-59
2022/04/12 02:46:39;;;;;;;119.87;54.83;;;;;;;-0.95;66.75;100695.55;2050768;86;27713;-59
2022/04/12 02:49:41;;;;;;;124.87;54.30;;;;;;;-0.96;66.65;100699.05;2050146;86;29109;-60
2022/04/12 02:52:43;;;;;;;116.35;53.58;;;;;;;-1.00;66.57;100694.22;2050943;86;31439;-60
2022/04/12 02:55:46;;;;;;;114.35;53.13;;;;;;;-1.01;66.59;100695.55;2050517;86;33354;-61
2022/04/12 02:58:48;;;;;;;119.75;53.42;;;;;;;-1.04;66.62;100693.75;2050943;86;28844;-60
2022/04/12 03:01:50;;;;;;;122.17;53.23;;;;;;;-1.07;66.63;100695.05;2049438;86;27599;-67
2022/04/12 03:04:52;;;;;;;117.15;51.53;;;;;;;-1.10;66.67;100694.61;2049438;86;29055;-61
2022/04/12 03:07:54;;;;;;;116.65;49.38;;;;;;;-1.11;66.77;100703.38;2050982;86;31368;-62
2022/04/12 03:10:56;;;;;;;108.85;50.08;;;;;;;-1.14;66.75;100693.28;2050468;86;34201;-61
2022/04/12 03:13:57;;;;;;;113.70;50.35;;;;;;;-1.17;66.77;100699.84;2035199;86;30509;-60
2022/04/12 03:16:59;;;;;;;109.83;49.20;;;;;;;-1.19;66.87;100704.20;2048409;86;27827;-60
2022/04/12 03:20:05;;;;;;;102.70;49.23;;;;;;;-1.20;66.84;100701.13;2048811;86;29814;-59
2022/04/12 03:23:07;;;;;;;108.67;49.58;;;;;;;-1.25;66.90;100698.06;2048856;86;31929;-59
2022/04/12 03:26:09;;;;;;;96.67;46.77;;;;;;;-1.26;66.87;100700.25;2041576;86;33369;-59
2022/04/12 03:29:11;;;;;;;128.23;59.85;;;;;;;-1.28;66.84;100694.09;2054686;86;30262;-66
2022/04/12 03:32:13;;;;;;;112.30;51.77;;;;;;;-1.28;66.95;100699.36;2055239;86;27710;-60
2022/04/12 03:35:15;;;;;;;114.20;54.15;;;;;;;-1.31;67.03;100705.01;2083754;85;28816;-60
2022/04/12 03:38:17;;;;;;;126.07;56.95;;;;;;;-1.33;67.06;100706.78;2062108;86;31057;-60
2022/04/12 03:41:23;;;;;;;117.82;53.70;;;;;;;-1.34;67.26;100707.64;2082821;84;32979;-60
2022/04/12 03:44:25;;;;;;;118.87;53.35;;;;;;;-1.37;67.19;100707.17;2107444;84;29319;-61
2022/04/12 03:47:29;;;;;;;106.52;51.08;;;;;;;-1.40;67.23;100713.30;2101535;84;28121;-60
2022/04/12 03:50:31;;;;;;;105.58;50.85;;;;;;;-1.42;67.35;100710.23;2073095;85;28657;-60
2022/04/12 03:53:33;;;;;;;104.95;51.18;;;;;;;-1.43;67.34;100715.90;2047186;86;32297;-60
2022/04/12 03:56:35;;;;;;;111.47;52.83;;;;;;;-1.45;67.32;100720.27;2105120;84;32976;-60
2022/04/12 03:59:37;;;;;;;105.43;50.80;;;;;;;-1.44;67.43;100721.16;2072127;85;29977;-66
2022/04/12 04:02:39;;;;;;;112.28;55.30;;;;;;;-1.45;67.49;100724.20;2073553;85;28040;-65
2022/04/12 04:05:41;;;;;;;111.68;54.53;;;;;;;-1.43;67.76;100725.09;2073521;85;29484;-60
2022/04/12 04:08:43;;;;;;;107.30;51.42;;;;;;;-1.42;68.01;100724.68;2076674;84;31445;-60
2022/04/12 04:11:45;;;;;;;109.92;49.95;;;;;;;-1.39;68.11;100728.20;2107477;84;32769;-59
2022/04/12 04:14:47;;;;;;;109.60;51.50;;;;;;;-1.36;68.11;100731.72;2106931;84;30620;-60
2022/04/12 04:17:49;;;;;;;108.75;51.42;;;;;;;-1.33;68.10;100733.92;2099909;84;27633;-61
2022/04/12 04:20:51;;;;;;;101.38;50.23;;;;;;;-1.30;68.32;100738.31;2077272;84;29559;-60
2022/04/12 04:23:53;;;;;;;107.97;50.23;;;;;;;-1.25;68.28;100737.49;2107278;84;31379;-61
2022/04/12 04:26:56;;;;;;;101.70;48.15;;;;;;;-1.19;68.32;100741.90;2082035;84;33764;-65
2022/04/12 04:29:58;;;;;;;102.10;51.25;;;;;;;-1.13;68.41;100750.25;2067754;85;29756;-61
2022/04/12 04:33:00;;;;;;;106.52;53.63;;;;;;;-1.05;68.61;100750.30;2060678;85;27767;-66
2022/04/12 04:36:02;;;;;;;108.45;49.00;;;;;;;-0.98;68.66;100757.33;2071785;85;28686;-65
2022/04/12 04:39:04;;;;;;;103.58;52.40;;;;;;;-0.91;68.51;100755.19;2053985;85;31410;-60
2022/04/12 04:42:06;;;;;;;105.97;56.05;;;;;;;-0.83;68.78;100746.02;2055934;85;33773;-61
2022/04/12 04:45:09;;;;;;;129.03;57.55;;;;;;;-0.74;68.90;100745.17;2071703;85;30679;-61
2022/04/12 04:48:12;;;;;;;119.37;54.85;;;;;;;-0.66;68.91;100743.47;2072209;85;27626;-60
2022/04/12 04:51:14;;;;;;;108.40;56.05;;;;;;;-0.56;68.93;100747.88;2053567;85;29997;-60
2022/04/12 04:54:16;;;;;;;106.70;55.48;;;;;;;-0.44;68.78;100750.09;2059589;85;31814;-59
2022/04/12 04:57:17;;;;;;;108.52;53.55;;;;;;;-0.32;68.73;100754.97;2060876;85;33392;-60
2022/04/12 05:00:21;;;;;;;103.45;56.05;;;;;;;-0.17;68.69;100755.45;2057822;86;30305;-60
2022/04/12 05:03:22;;;;;;;113.28;56.13;;;;;;;-0.01;68.68;100757.66;2071475;85;28257;-60
2022/04/12 05:06:24;;;;;;;107.25;57.50;;;;;;;0.18;68.76;100755.04;2062378;85;29265;-62
2022/04/12 05:09:30;;;;;;;115.35;57.85;;;;;;;0.41;68.75;100760.76;2056701;85;31896;-61
2022/04/12 05:12:31;;;;;;;113.42;58.35;;;;;;;0.70;68.76;100762.48;2071589;85;33059;-61
2022/04/12 05:15:34;;;;;;;103.70;54.18;;;;;;;1.01;68.62;100758.00;2057825;86;29313;-62
2022/04/12 05:18:36;;;;;;;112.47;57.70;;;;;;;1.32;68.40;100767.16;2057084;85;27740;-62
2022/04/12 05:21:38;;;;;;;111.12;55.85;;;;;;;1.63;68.13;100770.98;2035724;87;28703;-62
2022/04/12 05:24:44;;;;;;;107.83;53.05;;;;;;;1.91;67.97;100768.59;2035759;87;31549;-61
2022/04/12 05:27:47;;;;;;;114.37;53.98;;;;;;;2.10;67.71;100770.23;2052747;86;33796;-61
2022/04/12 05:30:50;;;;;;;97.02;49.13;;;;;;;2.25;67.46;100765.71;2070008;85;30528;-61
2022/04/12 05:33:52;;;;;;;89.40;46.30;;;;;;;2.36;67.44;100767.84;2086967;84;27711;-62
2022/04/12 05:36:54;;;;;;;88.55;45.45;;;;;;;2.47;67.36;100766.44;2080534;85;28626;-62
2022/04/12 05:39:56;;;;;;;89.40;45.63;;;;;;;2.62;67.35;100765.41;2061137;85;32227;-62
2022/04/12 05:42:58;;;;;;;89.37;45.15;;;;;;;2.82;67.22;100770.95;2042570;87;33673;-62
2022/04/12 05:46:00;;;;;;;83.03;44.08;;;;;;;3.04;67.15;100776.47;2042422;87;29423;-65
2022/04/12 05:49:02;;;;;;;88.00;45.00;;;;;;;3.26;67.01;100773.55;2043576;87;27687;-62
2022/04/12 05:52:06;;;;;;;75.47;41.60;;;;;;;3.50;66.64;100766.22;2046023;87;28678;-62
2022/04/12 05:55:10;;;;;;;79.82;41.53;;;;;;;3.77;66.52;100772.03;2071826;85;31906;-63
2022/04/12 05:58:12;;;;;;;78.10;42.15;;;;;;;4.01;66.19;100776.10;2081180;84;33597;-62
2022/04/12 06:01:14;;;;;;;68.33;38.38;;;;;;;4.22;66.09;100770.05;2079696;84;30103;-61
2022/04/12 06:04:16;;;;;;;68.42;37.38;;;;;;;4.58;66.04;100775.66;2076602;85;27669;-62
2022/04/12 06:07:18;;;;;;;68.52;35.52;;;;;;;5.11;65.83;100780.03;2042465;87;29856;-63
2022/04/12 06:10:21;;;;;;;61.63;34.25;;;;;;;5.81;65.42;100775.45;2042238;87;32431;-64
2022/04/12 06:13:23;;;;;;;64.20;35.50;;;;;;;6.60;64.97;100780.77;2042415;87;34072;-62
2022/04/12 06:16:25;;;;;;;68.42;35.03;;;;;;;7.32;63.46;100785.06;2042079;87;30565;-62
2022/04/12 06:19:27;;;;;;;64.95;35.13;;;;;;;7.81;62.35;100776.06;2066632;85;27664;-62
2022/04/12 06:22:29;;;;;;;54.93;31.23;;;;;;;8.33;61.86;100773.09;2044622;86;29576;-62
2022/04/12 06:25:31;;;;;;;61.53;32.80;;;;;;;8.97;61.49;100780.34;2071217;85;31170;-63
2022/04/12 06:28:33;;;;;;;59.48;31.60;;;;;;;9.55;60.46;100777.34;2069007;85;34194;-63
2022/04/12 06:31:35;;;;;;;52.95;30.80;;;;;;;10.17;60.16;100783.46;2067783;86;29739;-63
2022/04/12 06:34:37;;;;;;;54.50;29.48;;;;;;;10.70;58.66;100780.86;2067996;86;27699;-64
2022/04/12 06:37:41;;;;;;;55.20;29.87;;;;;;;11.16;57.75;100779.80;2067583;86;29952;-62
2022/04/12 06:40:44;;;;;;;54.90;31.30;;;;;;;11.73;57.25;100775.86;2066699;86;31051;-64
2022/04/12 06:43:46;;;;;;;54.58;30.43;;;;;;;12.27;56.82;100776.48;2066225;86;33451;-63
2022/04/12 06:46:48;;;;;;;53.05;28.23;;;;;;;12.51;55.21;100775.73;2066854;86;30277;-63
2022/04/12 06:49:52;;;;;;;52.03;28.77;;;;;;;12.91;55.25;100779.06;2066839;86;27709;-63
2022/04/12 06:52:56;;;;;;;45.55;28.35;;;;;;;13.38;53.74;100775.31;2071621;84;29256;-63
2022/04/12 06:55:58;;;;;;;47.73;27.82;;;;;;;13.75;53.32;100781.88;2036393;87;31053;-63
2022/04/12 06:59:00;;;;;;;43.63;24.67;;;;;;;14.16;52.03;100780.02;2102319;84;33856;-64
2022/04/12 07:02:02;;;;;;;40.43;25.52;;;;;;;14.57;52.48;100778.57;2096466;84;30474;-63
2022/04/12 07:05:05;;;;;;;44.83;23.70;;;;;;;15.15;51.57;100783.68;2071403;85;27690;-66
2022/04/12 07:08:08;;;;;;;39.95;24.85;;;;;;;15.53;50.09;100788.16;2074266;85;28875;-65
2022/04/12 07:11:10;;;;;;;42.05;25.37;;;;;;;15.90;50.40;100785.36;2104190;84;31924;-65
2022/04/12 07:14:11;;;;;;;43.75;26.07;;;;;;;16.67;48.93;100790.25;2107268;84;33692;-68
2022/04/12 07:17:14;;;;;;;42.10;26.50;;;;;;;16.67;48.93;100790.25;2103504;84;30271;-63
2022/04/12 07:20:16;;;;;;;44.00;26.40;;;;;;;16.89;47.16;100789.27;2072417;85;27720;-70
2022/04/12 07:23:17;;;;;;;43.68;25.65;;;;;;;17.03;47.11;100796.02;2070606;86;30023;-63
2022/04/12 07:26:19;;;;;;;44.40;26.10;;;;;;;17.40;47.22;100797.98;2072460;85;31482;-65
2022/04/12 07:29:21;;;;;;;29.92;20.15;;;;;;;17.87;46.58;100792.86;2077432;85;33338;-65
2022/04/12 07:32:23;;;;;;;25.72;18.23;;;;;;;18.23;42.68;100792.50;2044160;87;30782;-64
2022/04/12 07:35:27;;;;;;;25.50;15.80;;;;;;;18.41;44.14;100788.92;2013421;88;27726;-63
2022/04/12 07:38:29;;;;;;;26.42;16.42;;;;;;;18.55;42.92;100799.22;2013382;88;28680;-62
2022/04/12 07:41:31;;;;;;;22.22;14.43;;;;;;;18.67;42.92;100795.09;2041517;85;32254;-63
2022/04/12 07:44:35;;;;;;;33.20;13.97;;;;;;;19.06;41.28;100796.25;2071191;85;29258;-63
2022/04/12 07:47:37;;;;;;;18.02;10.45;;;;;;;19.49;41.59;100795.20;2071923;85;30615;-65
2022/04/12 07:50:40;;;;;;;22.07;11.28;;;;;;;19.65;40.49;100802.50;2051413;85;28204;-65
2022/04/12 07:53:42;;;;;;;17.85;11.35;;;;;;;19.85;40.32;100790.52;2045803;85;28772;-62
2022/04/12 07:56:44;;;;;;;17.98;10.80;;;;;;;20.17;39.10;100793.36;2058784;85;32423;-62
2022/04/12 07:59:46;;;;;;;21.52;12.43;;;;;;;20.47;38.01;100793.64;2070725;85;32973;-63
2022/04/12 08:02:49;;;;;;;18.40;10.03;;;;;;;20.56;38.22;100791.52;2030233;87;30523;-63
2022/04/12 08:05:51;;;;;;;19.75;10.32;;;;;;;20.62;37.42;100792.34;2030736;87;28177;-62
2022/04/12 08:08:53;;;;;;;14.43;9.85;;;;;;;20.79;36.89;100792.80;2035414;86;29713;-63
2022/04/12 08:11:55;;;;;;;11.48;8.25;;;;;;;21.02;36.93;100792.19;2041174;86;31480;-64
2022/04/12 08:14:59;;;;;;;12.93;8.90;;;;;;;21.38;36.45;100791.35;2066270;85;33651;-63
2022/04/12 08:18:01;;;;;;;11.55;7.92;;;;;;;21.68;35.53;100790.17;2064314;85;29391;-62
2022/04/12 08:21:03;;;;;;;14.80;8.08;;;;;;;21.89;34.55;100785.17;2060676;85;27768;-63
2022/04/12 08:24:07;;;;;;;11.68;8.10;;;;;;;22.01;33.97;100789.51;2072053;85;29067;-63
2022/04/12 08:27:10;;;;;;;10.50;8.35;;;;;;;22.00;33.43;100788.66;2044247;85;31834;-63
2022/04/12 08:30:13;;;;;;;11.25;8.23;;;;;;;21.98;32.47;100793.88;2068753;84;33006;-64
2022/04/12 08:33:16;;;;;;;13.45;7.60;;;;;;;21.73;31.40;100795.21;2076106;84;30245;-67
2022/04/12 08:36:20;;;;;;;11.40;7.15;;;;;;;21.53;31.91;100789.63;2090343;84;27718;-67
2022/04/12 08:39:21;;;;;;;9.68;6.28;;;;;;;21.30;29.97;100791.17;2046069;87;28833;-63
2022/04/12 08:42:23;;;;;;;7.35;5.12;;;;;;;20.91;30.78;100791.78;2093616;84;32183;-65
2022/04/12 08:45:27;;;;;;;11.22;5.33;;;;;;;20.71;30.56;100790.70;2068700;85;33919;-67
2022/04/12 08:48:30;;;;;;;9.50;4.10;;;;;;;20.41;30.94;100793.66;2071248;85;30120;-68
2022/04/12 08:51:32;;;;;;;10.75;5.45;;;;;;;19.97;30.16;100789.53;2071997;85;27727;-78
2022/04/12 08:54:34;;;;;;;9.20;6.17;;;;;;;19.68;30.32;100789.17;2095580;84;29456;-63
2022/04/12 08:57:38;;;;;;;6.47;4.47;;;;;;;19.40;30.38;100784.56;2066887;85;31007;-63
2022/04/12 09:00:43;;;;;;;9.47;4.57;;;;;;;19.15;31.19;100783.80;2013304;88;32805;-64
2022/04/12 09:03:47;;;;;;;7.25;3.80;;;;;;;19.06;31.59;100782.67;2038209;87;29191;-62
2022/04/12 09:06:52;;;;;;;11.22;5.17;;;;;;;18.98;31.30;100787.34;2038325;87;28346;-63
2022/04/12 09:10:06;;;;;;;10.65;4.72;;;;;;;18.90;30.84;100787.02;2056552;86;29488;-64
2022/04/12 09:13:14;;;;;;;10.58;4.97;;;;;;;18.56;29.86;100788.74;2050383;85;31046;-63
2022/04/12 09:16:16;;;;;;;8.05;4.20;;;;;;;18.19;29.71;100782.87;2080055;85;33141;-64
2022/04/12 09:19:42;;;;;;;6.97;4.35;;;;;;;18.10;31.01;100780.36;2079702;85;30577;-63
2022/04/12 09:22:44;;;;;;;9.83;4.97;;;;;;;18.20;31.37;100773.77;2055403;85;27713;-63
2022/04/12 09:25:54;;;;;;;9.35;5.03;;;;;;;18.25;30.71;100772.91;2063893;85;29545;-64
2022/04/12 09:29:00;;;;;;;11.03;4.58;;;;;;;18.11;30.41;100787.52;2035817;87;31115;-66
2022/04/12 09:32:04;;;;;;;10.88;4.20;;;;;;;17.85;29.59;100779.91;2059412;86;33201;-68
2022/04/12 09:35:08;;;;;;;6.30;3.77;;;;;;;17.75;29.86;100775.64;2063206;86;36777;-65
2022/04/12 09:38:10;;;;;;;7.12;3.67;;;;;;;17.59;30.00;100775.39;2037680;86;27663;-78
2022/04/12 09:41:23;;;;;;;5.95;3.67;;;;;;;17.27;30.16;100771.78;2048992;86;29372;-66
2022/04/12 09:44:25;;;;;;;5.55;3.17;;;;;;;17.12;30.70;100779.12;2051301;86;31583;-67
2022/04/12 09:47:27;;;;;;;8.38;4.33;;;;;;;16.95;30.30;100784.83;2022694;86;33329;-64
2022/04/12 09:50:31;;;;;;;9.08;4.83;;;;;;;16.73;30.36;100773.23;2040772;87;29757;-65
2022/04/12 09:53:40;;;;;;;8.97;5.10;;;;;;;16.56;30.19;100769.33;2033366;87;27685;-65
2022/04/12 09:56:43;;;;;;;7.70;4.92;;;;;;;16.41;30.83;100773.06;2033716;86;28708;-64
2022/04/12 09:59:45;;;;;;;7.60;4.15;;;;;;;16.31;30.93;100770.11;2050751;86;30895;-65
2022/04/12 10:02:47;;;;;;;6.62;4.10;;;;;;;16.25;31.45;100767.33;2050914;86;33210;-65
2022/04/12 10:05:49;;;;;;;8.78;4.80;;;;;;;16.28;31.58;100761.34;2050706;86;29701;-68
2022/04/12 10:09:01;;;;;;;6.30;4.20;;;;;;;16.31;31.81;100766.55;2051016;86;28261;-66
2022/04/12 10:12:05;;;;;;;9.63;4.15;;;;;;;16.28;31.62;100754.58;2050684;86;28553;-64
2022/04/12 10:15:08;;;;;;;9.38;4.37;;;;;;;16.16;30.62;100761.66;2050518;86;30469;-64
2022/04/12 10:18:19;;;;;;;7.35;4.45;;;;;;;15.84;30.17;100756.48;2050979;86;32976;-66
2022/04/12 10:21:19;;;;;;;7.03;4.28;;;;;;;15.64;30.80;100754.11;2050002;86;30039;-64
2022/04/12 10:24:21;;;;;;;7.37;4.40;;;;;;;15.40;31.12;100751.59;2051374;86;28233;-65
2022/04/12 10:27:23;;;;;;;8.98;5.00;;;;;;;15.40;31.12;100751.59;2050384;86;29638;-63
2022/04/12 10:30:28;;;;;;;6.33;4.30;;;;;;;15.34;31.25;100748.34;2063022;84;31048;-63
2022/04/12 10:33:29;;;;;;;;;;;;;;;15.38;31.99;100739.56;2070342;86;33118;-63
2022/04/12 10:37:04;;;;;;;7.10;3.58;;;;;;;15.42;30.75;100742.92;2065846;86;30476;-64
2022/04/12 10:40:08;;;;;;;10.03;4.08;;;;;;;15.22;30.49;100743.72;2063428;85;27725;-66
2022/04/12 10:43:22;;;;;;;7.83;4.20;;;;;;;14.90;30.49;100743.83;2092607;85;28749;-62
2022/04/12 10:46:24;;;;;;;8.03;4.25;;;;;;;14.90;30.49;100743.83;2092080;85;31839;-62
2022/04/12 10:49:27;;;;;;;7.62;4.55;;;;;;;14.71;29.85;100742.27;2074006;85;34268;-63
2022/04/12 10:52:48;;;;;;;7.30;4.45;;;;;;;14.54;30.14;100738.34;2041233;86;29134;-63
2022/04/12 10:55:50;;;;;;;8.73;4.65;;;;;;;14.39;30.54;100733.36;2067982;85;27631;-62
2022/04/12 10:58:51;;;;;;;7.22;4.50;;;;;;;14.25;30.84;100722.91;2090501;85;28567;-64
2022/04/12 11:01:55;;;;;;;5.95;3.75;;;;;;;14.20;30.88;100716.06;2082316;85;31620;-61
2022/04/12 11:04:57;;;;;;;8.03;3.90;;;;;;;14.19;31.71;100725.09;2068272;86;32961;-63
2022/04/12 11:08:00;;;;;;;8.85;4.30;;;;;;;14.21;31.22;100721.34;2068307;86;29136;-64
2022/04/12 11:11:09;;;;;;;6.72;4.17;;;;;;;14.23;31.51;100714.54;2068240;86;27581;-62
2022/04/12 11:14:32;;;;;;;9.23;4.22;;;;;;;14.21;31.35;100715.10;2069145;85;29827;-61
2022/04/12 11:17:38;;;;;;;8.60;4.20;;;;;;;14.25;31.42;100713.94;2066084;86;31161;-61
2022/04/12 11:20:46;;;;;;;7.00;3.90;;;;;;;14.24;31.33;100710.39;2066184;86;32991;-65
2022/04/12 11:24:07;;;;;;;7.90;4.40;;;;;;;14.24;31.24;100700.96;2063748;86;29710;-65
2022/04/12 11:27:13;;;;;;;11.08;3.98;;;;;;;14.24;31.71;100698.27;2104103;84;27684;-71
2022/04/12 11:30:14;;;;;;;8.55;3.92;;;;;;;14.27;31.37;100707.52;2082686;84;28635;-61
2022/04/12 11:33:17;;;;;;;7.30;3.67;;;;;;;14.19;30.76;100699.50;2071594;85;31673;-62
2022/04/12 11:36:20;;;;;;;5.62;3.40;;;;;;;14.18;30.72;100703.15;2072398;85;33864;-61
2022/04/12 11:39:24;;;;;;;4.60;3.30;;;;;;;14.12;29.39;100695.80;2071547;85;30132;-61
2022/04/12 11:42:29;;;;;;;6.60;3.70;;;;;;;14.03;29.99;100696.35;2095719;84;28372;-63
2022/04/12 11:45:33;;;;;;;7.87;4.08;;;;;;;13.99;30.27;100693.44;2105271;84;29413;-62
2022/04/12 11:48:36;;;;;;;7.12;3.98;;;;;;;13.96;30.27;100686.41;2107240;84;31829;-64
2022/04/12 11:51:42;;;;;;;9.15;4.00;;;;;;;13.99;31.23;100688.05;2107162;84;33555;-64
2022/04/12 11:54:48;;;;;;;7.28;3.40;;;;;;;14.04;31.17;100699.44;2080494;84;30275;-62
2022/04/12 11:57:51;;;;;;;7.92;3.70;;;;;;;14.08;30.68;100704.16;2071274;85;27710;-62
2022/04/12 12:00:54;;;;;;;8.40;4.28;;;;;;;14.02;30.61;100698.66;2070966;85;29356;-61
2022/04/12 12:04:05;;;;;;;7.15;4.05;;;;;;;13.97;31.35;100693.54;2074021;85;30781;-62
2022/04/12 12:07:08;;;;;;;5.03;3.42;;;;;;;14.03;31.27;100698.16;2073444;85;33688;-72
2022/04/12 12:10:15;;;;;;;7.97;4.53;;;;;;;14.02;30.70;100698.66;2061183;84;30008;-64
2022/04/12 12:13:17;;;;;;;7.50;4.62;;;;;;;14.01;30.96;100699.61;2072307;85;28337;-64
2022/04/12 12:16:19;;;;;;;5.45;3.90;;;;;;;14.01;30.43;100691.98;2072342;85;30004;-62
2022/04/12 12:19:22;;;;;;;6.62;3.58;;;;;;;13.99;31.02;100689.40;2106002;84;32291;-67
2022/04/12 12:22:25;;;;;;;10.58;4.03;;;;;;;14.04;31.57;100691.36;2105870;83;33734;-69
2022/04/12 12:25:51;;;;;;;7.37;3.90;;;;;;;14.07;30.81;100689.80;2079802;84;29898;-63
2022/04/12 12:28:58;;;;;;;;;;;;;;;14.11;30.90;100689.17;2083050;84;27723;-64
2022/04/12 12:32:00;;;;;;;8.80;4.12;;;;;;;14.13;31.00;100688.11;2053939;86;29799;-64
2022/04/12 12:35:06;;;;;;;7.10;4.10;;;;;;;14.15;30.88;100683.97;2055701;86;32256;-63
2022/04/12 12:38:15;;;;;;;7.92;4.00;;;;;;;14.12;30.86;100679.64;2055002;86;32957;-64
2022/04/12 12:41:28;;;;;;;6.22;3.62;;;;;;;14.11;30.54;100682.44;2055693;86;29852;-65
2022/04/12 12:44:37;;;;;;;5.03;3.60;;;;;;;14.08;29.79;100670.48;2055011;86;28309;-64
2022/04/12 12:47:46;;;;;;;7.58;4.17;;;;;;;14.07;30.59;100674.13;2033120;87;30022;-74
2022/04/12 12:50:48;;;;;;;10.53;4.00;;;;;;;14.08;30.42;100678.07;2001182;89;31211;-66
2022/04/12 12:54:01;;;;;;;5.70;3.65;;;;;;;14.14;30.58;100679.56;2024658;87;33137;-69
2022/04/12 12:57:06;;;;;;;6.20;3.55;;;;;;;14.16;30.50;100665.98;2032232;87;30461;-69
2022/04/12 13:00:23;;;;;;;6.22;4.35;;;;;;;14.15;30.35;100671.84;2049086;86;27668;-66
2022/04/12 13:03:23;;;;;;;8.10;4.65;;;;;;;14.13;30.30;100675.98;2055723;86;28864;-69
2022/04/12 13:06:31;;;;;;;6.90;3.90;;;;;;;14.13;30.75;100673.29;2055693;86;31756;-67
2022/04/12 13:09:40;;;;;;;11.63;4.05;;;;;;;14.17;30.88;100668.58;2052624;86;33759;-65
2022/04/12 13:12:44;;;;;;;5.25;3.65;;;;;;;14.20;30.77;100670.25;2050446;86;29339;-67
2022/04/12 13:15:47;;;;;;;7.77;4.10;;;;;;;14.23;30.63;100674.12;2050382;86;27707;-63
2022/04/12 13:18:49;;;;;;;7.65;3.70;;;;;;;14.25;30.70;100674.87;2050430;86;28756;-65
2022/04/12 13:21:51;;;;;;;5.65;3.60;;;;;;;14.28;30.72;100678.27;2050387;86;32229;-63
2022/04/12 13:24:54;;;;;;;6.80;3.77;;;;;;;14.32;30.36;100676.25;2040651;86;33721;-62
2022/04/12 13:27:55;;;;;;;5.85;3.58;;;;;;;14.29;30.69;100672.38;2055775;86;30265;-63
2022/04/12 13:30:59;;;;;;;7.37;4.00;;;;;;;14.34;30.98;100666.72;2074321;85;27737;-62
2022/04/12 13:34:00;;;;;;;8.75;4.28;;;;;;;14.39;31.13;100667.31;2086832;85;29958;-61
2022/04/12 13:37:04;;;;;;;8.75;4.25;;;;;;;14.42;31.05;100660.41;2086503;85;31486;-62
2022/04/12 13:40:08;;;;;;;10.15;4.45;;;;;;;14.44;30.89;100656.64;2086957;85;32932;-61
2022/04/12 13:43:10;;;;;;;6.58;3.60;;;;;;;14.43;30.88;100652.70;2060238;85;29510;-62
2022/04/12 13:46:12;;;;;;;6.83;4.03;;;;;;;14.46;30.90;100655.69;2054202;85;27699;-66
2022/04/12 13:49:14;;;;;;;6.70;3.33;;;;;;;14.43;30.71;100654.91;2052809;86;29531;-62
2022/04/12 13:52:16;;;;;;;9.23;3.95;;;;;;;14.43;30.75;100648.66;2053179;86;31587;-63
2022/04/12 13:55:18;;;;;;;8.00;4.17;;;;;;;14.46;30.89;100640.86;2053970;85;32993;-67
2022/04/12 13:58:20;;;;;;;7.85;3.67;;;;;;;14.44;30.29;100632.88;2041239;86;30516;-63
2022/04/12 14:01:22;;;;;;;7.15;4.10;;;;;;;14.40;30.53;100634.87;2054272;86;27704;-63
2022/04/12 14:04:24;;;;;;;9.08;4.42;;;;;;;14.39;30.63;100636.32;2057707;86;29714;-62